sensor_id;sensor_type;location;lat;lon;timestamp;temperature;humidity
3488;DHT22;38546;48.170;11.724;2024-02-04T00:00:16;7.20;99.90
3488;DHT22;38546;48.170;11.724;2024-02-04T00:02:48;7.10;99.90
3488;DHT22;38546;48.170;11.724;2024-02-04T00:05:19;7.10;99.90
3488;DHT22;38546;48.170;11.724;2024-02-04T00:07:50;7.10;99.90
3488;DHT22;38546;48.170;11.724;2024-02-04T00:10:20;7.10;99.90
3488;DHT22;38546;48.170;11.724;2024-02-04T00:12:51;7.20;99.90
3488;DHT22;38546;48.170;11.724;2024-02-04T00:15:21;7.10;99.90
3488;DHT22;38546;48.170;11.724;2024-02-04T00:17:52;7.10;99.90
3488;DHT22;38546;48.170;11.724;2024-02-04T00:20:23;7.20;99.90
3488;DHT22;38546;48.170;11.724;2024-02-04T00:22:56;7.20;99.90
3488;DHT22;38546;48.170;11.724;2024-02-04T00:25:26;7.20;99.90
3488;DHT22;38546;48.170;11.724;2024-02-04T00:27:59;7.20;99.90
3488;DHT22;38546;48.170;11.724;2024-02-04T00:30:30;7.30;99.90
3488;DHT22;38546;48.170;11.724;2024-02-04T00:33:00;7.10;99.90
3488;DHT22;38546;48.170;11.724;2024-02-04T00:35:33;7.10;99.90
3488;DHT22;38546;48.170;11.724;2024-02-04T00:38:04;7.00;99.90
3488;DHT22;38546;48.170;11.724;2024-02-04T00:40:35;6.90;99.90
3488;DHT22;38546;48.170;11.724;2024-02-04T00:43:06;6.80;99.90
3488;DHT22;38546;48.170;11.724;2024-02-04T00:45:36;7.00;99.90
3488;DHT22;38546;48.170;11.724;2024-02-04T00:48:07;7.00;99.90
3488;DHT22;38546;48.170;11.724;2024-02-04T00:50:38;6.90;99.90
3488;DHT22;38546;48.170;11.724;2024-02-04T00:53:08;6.90;99.90
3488;DHT22;38546;48.170;11.724;2024-02-04T00:55:39;6.80;99.90
3488;DHT22;38546;48.170;11.724;2024-02-04T00:58:09;6.90;99.90
3488;DHT22;38546;48.170;11.724;2024-02-04T01:00:40;6.80;99.90
3488;DHT22;38546;48.170;11.724;2024-02-04T01:03:11;6.90;99.90
3488;DHT22;38546;48.170;11.724;2024-02-04T01:05:41;6.90;99.90
3488;DHT22;38546;48.170;11.724;2024-02-04T01:08:12;6.90;99.90
3488;DHT22;38546;48.170;11.724;2024-02-04T01:10:43;6.90;99.90
3488;DHT22;38546;48.170;11.724;2024-02-04T01:13:14;6.90;99.90
3488;DHT22;38546;48.170;11.724;2024-02-04T01:15:45;6.80;99.90
3488;DHT22;38546;48.170;11.724;2024-02-04T01:18:16;6.80;99.90
3488;DHT22;38546;48.170;11.724;2024-02-04T01:20:46;6.70;99.90
3488;DHT22;38546;48.170;11.724;2024-02-04T01:23:17;6.80;99.90
3488;DHT22;38546;48.170;11.724;2024-02-04T01:25:48;6.70;99.90
3488;DHT22;38546;48.170;11.724;2024-02-04T01:28:19;6.80;99.90
3488;DHT22;38546;48.170;11.724;2024-02-04T01:30:49;6.70;99.90
3488;DHT22;38546;48.170;11.724;2024-02-04T01:33:20;6.60;99.90
3488;DHT22;38546;48.170;11.724;2024-02-04T01:35:51;6.70;99.90
3488;DHT22;38546;48.170;11.724;2024-02-04T01:38:23;6.90;99.90
3488;DHT22;38546;48.170;11.724;2024-02-04T01:40:53;7.00;99.90
3488;DHT22;38546;48.170;11.724;2024-02-04T01:43:24;6.80;99.90
3488;DHT22;38546;48.170;11.724;2024-02-04T01:45:56;6.70;99.90
3488;DHT22;38546;48.170;11.724;2024-02-04T01:48:27;6.70;99.90
3488;DHT22;38546;48.170;11.724;2024-02-04T01:50:59;6.70;99.90
3488;DHT22;38546;48.170;11.724;2024-02-04T01:53:32;6.80;99.90
3488;DHT22;38546;48.170;11.724;2024-02-04T01:56:05;7.00;99.90
3488;DHT22;38546;48.170;11.724;2024-02-04T01:58:36;7.00;99.90
3488;DHT22;38546;48.170;11.724;2024-02-04T02:01:08;6.80;99.90
3488;DHT22;38546;48.170;11.724;2024-02-04T02:03:39;6.70;99.90
3488;DHT22;38546;48.170;11.724;2024-02-04T02:06:10;6.80;99.90
3488;DHT22;38546;48.170;11.724;2024-02-04T02:08:41;6.80;99.90
3488;DHT22;38546;48.170;11.724;2024-02-04T02:11:21;6.70;99.90
3488;DHT22;38546;48.170;11.724;2024-02-04T02:14:01;6.80;99.90
3488;DHT22;38546;48.170;11.724;2024-02-04T02:16:34;6.80;99.90
3488;DHT22;38546;48.170;11.724;2024-02-04T02:19:33;6.90;99.90
3488;DHT22;38546;48.170;11.724;2024-02-04T02:22:57;6.80;99.90
3488;DHT22;38546;48.170;11.724;2024-02-04T02:25:38;6.80;99.90
3488;DHT22;38546;48.170;11.724;2024-02-04T02:28:10;6.80;99.90
3488;DHT22;38546;48.170;11.724;2024-02-04T02:30:42;6.90;99.90
3488;DHT22;38546;48.170;11.724;2024-02-04T02:33:13;7.00;99.90
3488;DHT22;38546;48.170;11.724;2024-02-04T02:35:45;7.00;99.90
3488;DHT22;38546;48.170;11.724;2024-02-04T02:41:29;6.90;99.90
3488;DHT22;38546;48.170;11.724;2024-02-04T02:44:01;6.80;99.90
3488;DHT22;38546;48.170;11.724;2024-02-04T02:46:33;6.80;99.90
3488;DHT22;38546;48.170;11.724;2024-02-04T02:49:05;6.70;99.90
3488;DHT22;38546;48.170;11.724;2024-02-04T02:51:35;6.80;99.90
3488;DHT22;38546;48.170;11.724;2024-02-04T02:54:06;6.80;99.90
3488;DHT22;38546;48.170;11.724;2024-02-04T02:56:38;6.80;99.90
3488;DHT22;38546;48.170;11.724;2024-02-04T02:59:08;6.80;99.90
3488;DHT22;38546;48.170;11.724;2024-02-04T03:01:40;6.80;99.90
3488;DHT22;38546;48.170;11.724;2024-02-04T03:04:10;6.80;99.90
3488;DHT22;38546;48.170;11.724;2024-02-04T03:06:41;6.80;99.90
3488;DHT22;38546;48.170;11.724;2024-02-04T03:09:12;6.90;99.90
3488;DHT22;38546;48.170;11.724;2024-02-04T03:11:43;7.00;99.90
3488;DHT22;38546;48.170;11.724;2024-02-04T03:14:17;7.00;99.90
3488;DHT22;38546;48.170;11.724;2024-02-04T03:16:48;7.00;99.90
3488;DHT22;38546;48.170;11.724;2024-02-04T03:19:19;7.00;99.90
3488;DHT22;38546;48.170;11.724;2024-02-04T03:21:49;7.10;99.90
3488;DHT22;38546;48.170;11.724;2024-02-04T03:24:20;7.10;99.90
3488;DHT22;38546;48.170;11.724;2024-02-04T03:26:51;7.00;99.90
3488;DHT22;38546;48.170;11.724;2024-02-04T03:29:22;7.10;99.90
3488;DHT22;38546;48.170;11.724;2024-02-04T03:31:55;7.20;99.90
3488;DHT22;38546;48.170;11.724;2024-02-04T03:34:26;7.20;99.90
3488;DHT22;38546;48.170;11.724;2024-02-04T03:36:57;7.30;99.90
3488;DHT22;38546;48.170;11.724;2024-02-04T03:39:27;7.30;99.90
3488;DHT22;38546;48.170;11.724;2024-02-04T03:41:58;7.20;99.90
3488;DHT22;38546;48.170;11.724;2024-02-04T03:44:29;7.20;99.90
3488;DHT22;38546;48.170;11.724;2024-02-04T03:46:59;7.20;99.90
3488;DHT22;38546;48.170;11.724;2024-02-04T03:49:30;7.30;99.90
3488;DHT22;38546;48.170;11.724;2024-02-04T03:52:00;7.30;99.90
3488;DHT22;38546;48.170;11.724;2024-02-04T03:54:31;7.20;99.90
3488;DHT22;38546;48.170;11.724;2024-02-04T03:57:02;7.10;99.90
3488;DHT22;38546;48.170;11.724;2024-02-04T03:59:33;7.00;99.90
3488;DHT22;38546;48.170;11.724;2024-02-04T04:02:04;7.00;99.90
3488;DHT22;38546;48.170;11.724;2024-02-04T04:04:35;7.00;99.90
3488;DHT22;38546;48.170;11.724;2024-02-04T04:07:05;7.00;99.90
3488;DHT22;38546;48.170;11.724;2024-02-04T04:09:36;7.00;99.90
3488;DHT22;38546;48.170;11.724;2024-02-04T04:12:07;7.10;99.90
3488;DHT22;38546;48.170;11.724;2024-02-04T04:14:37;7.00;99.90
3488;DHT22;38546;48.170;11.724;2024-02-04T04:17:08;6.80;99.90
3488;DHT22;38546;48.170;11.724;2024-02-04T04:19:39;6.90;99.90
3488;DHT22;38546;48.170;11.724;2024-02-04T04:22:09;6.70;99.90
3488;DHT22;38546;48.170;11.724;2024-02-04T04:24:40;6.60;99.90
3488;DHT22;38546;48.170;11.724;2024-02-04T04:27:11;6.50;99.90
3488;DHT22;38546;48.170;11.724;2024-02-04T04:29:41;6.40;99.90
3488;DHT22;38546;48.170;11.724;2024-02-04T04:32:12;6.50;99.90
3488;DHT22;38546;48.170;11.724;2024-02-04T04:34:43;6.40;99.90
3488;DHT22;38546;48.170;11.724;2024-02-04T04:37:13;6.30;99.90
3488;DHT22;38546;48.170;11.724;2024-02-04T04:39:44;6.30;99.90
3488;DHT22;38546;48.170;11.724;2024-02-04T04:42:14;6.30;99.90
3488;DHT22;38546;48.170;11.724;2024-02-04T04:44:45;6.40;99.90
3488;DHT22;38546;48.170;11.724;2024-02-04T04:47:17;6.50;99.90
3488;DHT22;38546;48.170;11.724;2024-02-04T04:49:47;6.50;99.90
3488;DHT22;38546;48.170;11.724;2024-02-04T04:52:18;6.50;99.90
3488;DHT22;38546;48.170;11.724;2024-02-04T04:54:49;6.50;99.90
3488;DHT22;38546;48.170;11.724;2024-02-04T04:57:19;6.50;99.90
3488;DHT22;38546;48.170;11.724;2024-02-04T04:59:50;6.40;99.90
3488;DHT22;38546;48.170;11.724;2024-02-04T05:02:21;6.40;99.90
3488;DHT22;38546;48.170;11.724;2024-02-04T05:04:51;6.30;99.90
3488;DHT22;38546;48.170;11.724;2024-02-04T05:07:22;6.30;99.90
3488;DHT22;38546;48.170;11.724;2024-02-04T05:09:54;6.40;99.90
3488;DHT22;38546;48.170;11.724;2024-02-04T05:12:25;6.30;99.90
3488;DHT22;38546;48.170;11.724;2024-02-04T05:14:55;6.30;99.90
3488;DHT22;38546;48.170;11.724;2024-02-04T05:17:26;6.30;99.90
3488;DHT22;38546;48.170;11.724;2024-02-04T05:19:57;6.40;99.90
3488;DHT22;38546;48.170;11.724;2024-02-04T05:22:28;6.40;99.90
3488;DHT22;38546;48.170;11.724;2024-02-04T05:24:59;6.40;99.90
3488;DHT22;38546;48.170;11.724;2024-02-04T05:27:29;6.30;99.90
3488;DHT22;38546;48.170;11.724;2024-02-04T05:30:02;6.40;99.90
3488;DHT22;38546;48.170;11.724;2024-02-04T05:32:33;6.30;99.90
3488;DHT22;38546;48.170;11.724;2024-02-04T05:35:04;6.40;99.90
3488;DHT22;38546;48.170;11.724;2024-02-04T05:37:35;6.50;99.90
3488;DHT22;38546;48.170;11.724;2024-02-04T05:40:07;6.50;99.90
3488;DHT22;38546;48.170;11.724;2024-02-04T05:42:38;6.50;99.90
3488;DHT22;38546;48.170;11.724;2024-02-04T05:45:09;6.50;99.90
3488;DHT22;38546;48.170;11.724;2024-02-04T05:47:39;6.50;99.90
3488;DHT22;38546;48.170;11.724;2024-02-04T05:50:10;6.50;99.90
3488;DHT22;38546;48.170;11.724;2024-02-04T05:52:41;6.40;99.90
3488;DHT22;38546;48.170;11.724;2024-02-04T05:55:11;6.40;99.90
3488;DHT22;38546;48.170;11.724;2024-02-04T05:57:42;6.50;99.90
3488;DHT22;38546;48.170;11.724;2024-02-04T06:00:13;6.40;99.90
3488;DHT22;38546;48.170;11.724;2024-02-04T06:02:44;6.50;99.90
3488;DHT22;38546;48.170;11.724;2024-02-04T06:05:15;6.40;99.90
3488;DHT22;38546;48.170;11.724;2024-02-04T06:07:46;6.40;99.90
3488;DHT22;38546;48.170;11.724;2024-02-04T06:10:17;6.50;99.90
3488;DHT22;38546;48.170;11.724;2024-02-04T06:12:49;6.40;99.90
3488;DHT22;38546;48.170;11.724;2024-02-04T06:15:19;6.40;99.90
3488;DHT22;38546;48.170;11.724;2024-02-04T06:17:51;6.30;99.90
3488;DHT22;38546;48.170;11.724;2024-02-04T06:20:22;6.40;99.90
3488;DHT22;38546;48.170;11.724;2024-02-04T06:22:53;6.60;99.90
3488;DHT22;38546;48.170;11.724;2024-02-04T06:25:24;6.50;99.90
3488;DHT22;38546;48.170;11.724;2024-02-04T06:27:54;6.70;99.90
3488;DHT22;38546;48.170;11.724;2024-02-04T06:30:25;6.80;99.90
3488;DHT22;38546;48.170;11.724;2024-02-04T06:32:55;6.80;99.90
3488;DHT22;38546;48.170;11.724;2024-02-04T06:35:27;6.70;99.90
3488;DHT22;38546;48.170;11.724;2024-02-04T06:37:57;6.80;99.90
3488;DHT22;38546;48.170;11.724;2024-02-04T06:40:28;6.80;99.90
3488;DHT22;38546;48.170;11.724;2024-02-04T06:42:59;6.80;99.90
3488;DHT22;38546;48.170;11.724;2024-02-04T06:45:29;6.90;99.90
3488;DHT22;38546;48.170;11.724;2024-02-04T06:48:00;7.00;99.90
3488;DHT22;38546;48.170;11.724;2024-02-04T06:50:30;6.90;99.90
3488;DHT22;38546;48.170;11.724;2024-02-04T06:53:01;7.10;99.90
3488;DHT22;38546;48.170;11.724;2024-02-04T06:55:32;7.10;99.90
3488;DHT22;38546;48.170;11.724;2024-02-04T06:58:03;7.20;99.90
3488;DHT22;38546;48.170;11.724;2024-02-04T07:00:33;7.10;99.90
3488;DHT22;38546;48.170;11.724;2024-02-04T07:03:04;7.10;99.90
3488;DHT22;38546;48.170;11.724;2024-02-04T07:05:35;7.10;99.90
3488;DHT22;38546;48.170;11.724;2024-02-04T07:08:06;7.10;99.90
3488;DHT22;38546;48.170;11.724;2024-02-04T07:10:36;7.10;99.90
3488;DHT22;38546;48.170;11.724;2024-02-04T07:13:07;7.10;99.90
3488;DHT22;38546;48.170;11.724;2024-02-04T07:15:39;7.10;99.90
3488;DHT22;38546;48.170;11.724;2024-02-04T07:18:10;7.00;99.90
3488;DHT22;38546;48.170;11.724;2024-02-04T07:20:40;6.90;99.90
3488;DHT22;38546;48.170;11.724;2024-02-04T07:23:11;7.10;99.90
3488;DHT22;38546;48.170;11.724;2024-02-04T07:25:42;7.10;99.90
3488;DHT22;38546;48.170;11.724;2024-02-04T07:28:13;7.10;99.90
3488;DHT22;38546;48.170;11.724;2024-02-04T07:30:43;7.00;99.90
3488;DHT22;38546;48.170;11.724;2024-02-04T07:33:14;7.20;99.90
3488;DHT22;38546;48.170;11.724;2024-02-04T07:35:45;7.20;99.90
3488;DHT22;38546;48.170;11.724;2024-02-04T07:38:15;7.20;99.90
3488;DHT22;38546;48.170;11.724;2024-02-04T07:40:46;7.30;99.90
3488;DHT22;38546;48.170;11.724;2024-02-04T07:43:17;7.30;99.90
3488;DHT22;38546;48.170;11.724;2024-02-04T07:45:47;7.40;99.90
3488;DHT22;38546;48.170;11.724;2024-02-04T07:48:18;7.40;99.90
3488;DHT22;38546;48.170;11.724;2024-02-04T07:50:50;7.50;99.90
3488;DHT22;38546;48.170;11.724;2024-02-04T07:53:20;7.60;99.90
3488;DHT22;38546;48.170;11.724;2024-02-04T07:55:52;7.50;99.90
3488;DHT22;38546;48.170;11.724;2024-02-04T07:58:23;7.50;99.90
3488;DHT22;38546;48.170;11.724;2024-02-04T08:00:53;7.40;99.90
3488;DHT22;38546;48.170;11.724;2024-02-04T08:03:24;7.50;99.90
3488;DHT22;38546;48.170;11.724;2024-02-04T08:05:55;7.60;99.90
3488;DHT22;38546;48.170;11.724;2024-02-04T08:08:25;7.70;99.90
3488;DHT22;38546;48.170;11.724;2024-02-04T08:10:56;7.60;99.90
3488;DHT22;38546;48.170;11.724;2024-02-04T08:13:27;7.70;99.90
3488;DHT22;38546;48.170;11.724;2024-02-04T08:15:57;7.60;99.90
3488;DHT22;38546;48.170;11.724;2024-02-04T08:18:28;7.60;99.90
3488;DHT22;38546;48.170;11.724;2024-02-04T08:20:59;7.80;99.90
3488;DHT22;38546;48.170;11.724;2024-02-04T08:23:29;7.80;99.90
3488;DHT22;38546;48.170;11.724;2024-02-04T08:26:00;7.90;99.90
3488;DHT22;38546;48.170;11.724;2024-02-04T08:28:31;8.00;99.90
3488;DHT22;38546;48.170;11.724;2024-02-04T08:31:02;8.10;99.90
3488;DHT22;38546;48.170;11.724;2024-02-04T08:33:33;8.10;99.90
3488;DHT22;38546;48.170;11.724;2024-02-04T08:36:04;8.20;99.90
3488;DHT22;38546;48.170;11.724;2024-02-04T08:38:37;8.30;99.90
3488;DHT22;38546;48.170;11.724;2024-02-04T08:41:07;8.50;99.90
3488;DHT22;38546;48.170;11.724;2024-02-04T08:43:38;8.50;99.90
3488;DHT22;38546;48.170;11.724;2024-02-04T08:46:09;8.50;99.90
3488;DHT22;38546;48.170;11.724;2024-02-04T08:48:40;8.50;99.90
3488;DHT22;38546;48.170;11.724;2024-02-04T08:51:12;8.60;99.90
3488;DHT22;38546;48.170;11.724;2024-02-04T08:53:46;8.50;99.90
3488;DHT22;38546;48.170;11.724;2024-02-04T08:56:17;8.70;99.90
3488;DHT22;38546;48.170;11.724;2024-02-04T08:58:47;8.80;99.90
3488;DHT22;38546;48.170;11.724;2024-02-04T09:01:19;8.80;99.90
3488;DHT22;38546;48.170;11.724;2024-02-04T09:03:50;9.00;99.90
3488;DHT22;38546;48.170;11.724;2024-02-04T09:06:20;9.00;99.90
3488;DHT22;38546;48.170;11.724;2024-02-04T09:08:51;9.20;99.90
3488;DHT22;38546;48.170;11.724;2024-02-04T09:11:21;9.20;99.90
3488;DHT22;38546;48.170;11.724;2024-02-04T09:13:52;9.00;99.90
3488;DHT22;38546;48.170;11.724;2024-02-04T09:16:23;9.10;99.90
3488;DHT22;38546;48.170;11.724;2024-02-04T09:18:53;9.30;99.90
3488;DHT22;38546;48.170;11.724;2024-02-04T09:21:24;9.30;99.90
3488;DHT22;38546;48.170;11.724;2024-02-04T09:23:55;9.40;99.90
3488;DHT22;38546;48.170;11.724;2024-02-04T09:26:27;9.40;99.90
3488;DHT22;38546;48.170;11.724;2024-02-04T09:28:58;9.40;99.90
3488;DHT22;38546;48.170;11.724;2024-02-04T09:31:29;9.50;99.90
3488;DHT22;38546;48.170;11.724;2024-02-04T09:33:59;9.70;99.90
3488;DHT22;38546;48.170;11.724;2024-02-04T09:36:30;9.70;99.90
3488;DHT22;38546;48.170;11.724;2024-02-04T09:39:01;9.60;99.90
3488;DHT22;38546;48.170;11.724;2024-02-04T09:41:31;9.70;99.90
3488;DHT22;38546;48.170;11.724;2024-02-04T09:44:02;9.70;99.90
3488;DHT22;38546;48.170;11.724;2024-02-04T09:46:34;9.70;99.90
3488;DHT22;38546;48.170;11.724;2024-02-04T09:49:05;9.70;99.90
3488;DHT22;38546;48.170;11.724;2024-02-04T09:51:39;9.60;99.90
3488;DHT22;38546;48.170;11.724;2024-02-04T09:54:11;9.60;99.90
3488;DHT22;38546;48.170;11.724;2024-02-04T09:56:42;9.70;99.90
3488;DHT22;38546;48.170;11.724;2024-02-04T09:59:13;9.60;99.90
3488;DHT22;38546;48.170;11.724;2024-02-04T10:01:44;9.80;99.90
3488;DHT22;38546;48.170;11.724;2024-02-04T10:04:15;9.80;99.90
3488;DHT22;38546;48.170;11.724;2024-02-04T10:06:46;9.80;99.90
3488;DHT22;38546;48.170;11.724;2024-02-04T10:09:17;9.70;99.90
3488;DHT22;38546;48.170;11.724;2024-02-04T10:11:48;9.70;99.90
3488;DHT22;38546;48.170;11.724;2024-02-04T10:14:18;9.80;99.90
3488;DHT22;38546;48.170;11.724;2024-02-04T10:16:50;9.80;99.90
3488;DHT22;38546;48.170;11.724;2024-02-04T10:19:24;9.80;99.90
3488;DHT22;38546;48.170;11.724;2024-02-04T10:22:03;10.00;99.90
3488;DHT22;38546;48.170;11.724;2024-02-04T10:24:34;9.80;99.90
3488;DHT22;38546;48.170;11.724;2024-02-04T10:27:05;9.90;99.90
3488;DHT22;38546;48.170;11.724;2024-02-04T10:29:36;10.00;99.90
3488;DHT22;38546;48.170;11.724;2024-02-04T10:32:07;10.10;99.90
3488;DHT22;38546;48.170;11.724;2024-02-04T10:34:39;10.10;99.90
3488;DHT22;38546;48.170;11.724;2024-02-04T10:37:09;10.00;99.90
3488;DHT22;38546;48.170;11.724;2024-02-04T10:39:40;10.00;99.90
3488;DHT22;38546;48.170;11.724;2024-02-04T10:42:13;10.10;99.90
3488;DHT22;38546;48.170;11.724;2024-02-04T10:44:47;10.10;99.90
3488;DHT22;38546;48.170;11.724;2024-02-04T10:47:22;10.10;99.90
3488;DHT22;38546;48.170;11.724;2024-02-04T10:49:57;10.20;99.90
3488;DHT22;38546;48.170;11.724;2024-02-04T10:52:37;10.10;99.90
3488;DHT22;38546;48.170;11.724;2024-02-04T10:55:11;10.10;99.90
3488;DHT22;38546;48.170;11.724;2024-02-04T10:57:42;10.20;99.90
3488;DHT22;38546;48.170;11.724;2024-02-04T11:00:15;10.40;99.90
3488;DHT22;38546;48.170;11.724;2024-02-04T11:02:47;10.50;99.90
3488;DHT22;38546;48.170;11.724;2024-02-04T11:05:19;10.40;99.90
3488;DHT22;38546;48.170;11.724;2024-02-04T11:07:51;10.60;99.90
3488;DHT22;38546;48.170;11.724;2024-02-04T11:10:24;10.50;99.90
3488;DHT22;38546;48.170;11.724;2024-02-04T11:12:57;10.40;99.90
3488;DHT22;38546;48.170;11.724;2024-02-04T11:15:32;10.40;99.90
3488;DHT22;38546;48.170;11.724;2024-02-04T11:19:47;10.70;99.90
3488;DHT22;38546;48.170;11.724;2024-02-04T11:25:56;10.70;99.90
3488;DHT22;38546;48.170;11.724;2024-02-04T11:28:28;10.50;99.90
3488;DHT22;38546;48.170;11.724;2024-02-04T11:30:59;10.30;99.90
3488;DHT22;38546;48.170;11.724;2024-02-04T11:33:30;10.30;99.90
3488;DHT22;38546;48.170;11.724;2024-02-04T11:36:06;10.20;99.90
3488;DHT22;38546;48.170;11.724;2024-02-04T11:38:39;10.30;99.90
3488;DHT22;38546;48.170;11.724;2024-02-04T11:41:20;10.60;99.90
3488;DHT22;38546;48.170;11.724;2024-02-04T11:43:53;10.70;99.90
3488;DHT22;38546;48.170;11.724;2024-02-04T11:46:30;10.60;99.90
3488;DHT22;38546;48.170;11.724;2024-02-04T11:49:03;10.80;99.90
3488;DHT22;38546;48.170;11.724;2024-02-04T11:51:34;10.80;99.90
3488;DHT22;38546;48.170;11.724;2024-02-04T11:54:05;10.80;99.90
3488;DHT22;38546;48.170;11.724;2024-02-04T11:56:37;10.80;99.90
3488;DHT22;38546;48.170;11.724;2024-02-04T11:59:09;10.80;99.90
3488;DHT22;38546;48.170;11.724;2024-02-04T12:01:42;10.80;99.90
3488;DHT22;38546;48.170;11.724;2024-02-04T12:04:14;11.00;99.90
3488;DHT22;38546;48.170;11.724;2024-02-04T12:06:47;11.20;99.90
3488;DHT22;38546;48.170;11.724;2024-02-04T12:09:19;11.20;99.90
3488;DHT22;38546;48.170;11.724;2024-02-04T12:11:50;11.00;99.90
3488;DHT22;38546;48.170;11.724;2024-02-04T12:14:22;11.00;99.90
3488;DHT22;38546;48.170;11.724;2024-02-04T12:16:53;11.10;99.90
3488;DHT22;38546;48.170;11.724;2024-02-04T12:19:24;11.10;99.90
3488;DHT22;38546;48.170;11.724;2024-02-04T12:21:55;11.30;99.90
3488;DHT22;38546;48.170;11.724;2024-02-04T12:24:26;11.30;99.90
3488;DHT22;38546;48.170;11.724;2024-02-04T12:26:56;11.30;99.90
3488;DHT22;38546;48.170;11.724;2024-02-04T12:29:27;11.30;99.90
3488;DHT22;38546;48.170;11.724;2024-02-04T12:32:02;11.30;99.90
3488;DHT22;38546;48.170;11.724;2024-02-04T12:34:33;11.10;99.90
3488;DHT22;38546;48.170;11.724;2024-02-04T12:37:04;11.20;99.90
3488;DHT22;38546;48.170;11.724;2024-02-04T12:39:35;11.20;99.90
3488;DHT22;38546;48.170;11.724;2024-02-04T12:42:06;11.20;99.90
3488;DHT22;38546;48.170;11.724;2024-02-04T12:44:36;11.00;99.90
3488;DHT22;38546;48.170;11.724;2024-02-04T12:47:07;11.00;99.90
3488;DHT22;38546;48.170;11.724;2024-02-04T12:49:38;11.00;99.90
3488;DHT22;38546;48.170;11.724;2024-02-04T12:52:09;11.10;99.90
3488;DHT22;38546;48.170;11.724;2024-02-04T12:54:44;11.20;99.90
3488;DHT22;38546;48.170;11.724;2024-02-04T12:57:25;11.30;99.90
3488;DHT22;38546;48.170;11.724;2024-02-04T13:00:06;11.40;99.90
3488;DHT22;38546;48.170;11.724;2024-02-04T13:02:39;11.40;99.90
3488;DHT22;38546;48.170;11.724;2024-02-04T13:05:10;11.50;99.90
3488;DHT22;38546;48.170;11.724;2024-02-04T13:07:56;11.50;99.90
3488;DHT22;38546;48.170;11.724;2024-02-04T13:10:30;11.60;99.90
3488;DHT22;38546;48.170;11.724;2024-02-04T13:13:06;11.60;99.90
3488;DHT22;38546;48.170;11.724;2024-02-04T13:15:43;11.50;99.90
3488;DHT22;38546;48.170;11.724;2024-02-04T13:18:14;11.50;99.90
3488;DHT22;38546;48.170;11.724;2024-02-04T13:20:47;11.50;99.90
3488;DHT22;38546;48.170;11.724;2024-02-04T13:23:19;11.50;99.90
3488;DHT22;38546;48.170;11.724;2024-02-04T13:25:49;11.60;99.90
3488;DHT22;38546;48.170;11.724;2024-02-04T13:28:20;11.70;99.90
3488;DHT22;38546;48.170;11.724;2024-02-04T13:30:53;11.60;99.90
3488;DHT22;38546;48.170;11.724;2024-02-04T13:33:24;11.50;99.90
3488;DHT22;38546;48.170;11.724;2024-02-04T13:35:54;11.60;99.90
3488;DHT22;38546;48.170;11.724;2024-02-04T13:38:25;11.50;99.90
3488;DHT22;38546;48.170;11.724;2024-02-04T13:40:56;11.50;99.90
3488;DHT22;38546;48.170;11.724;2024-02-04T13:43:26;11.30;99.90
3488;DHT22;38546;48.170;11.724;2024-02-04T13:45:57;11.40;99.90
3488;DHT22;38546;48.170;11.724;2024-02-04T13:48:28;11.40;99.90
3488;DHT22;38546;48.170;11.724;2024-02-04T13:50:59;11.40;99.90
3488;DHT22;38546;48.170;11.724;2024-02-04T13:53:29;11.30;99.90
3488;DHT22;38546;48.170;11.724;2024-02-04T13:56:02;11.40;99.90
3488;DHT22;38546;48.170;11.724;2024-02-04T13:58:33;11.40;99.90
3488;DHT22;38546;48.170;11.724;2024-02-04T14:01:04;11.40;99.90
3488;DHT22;38546;48.170;11.724;2024-02-04T14:03:35;11.40;99.90
3488;DHT22;38546;48.170;11.724;2024-02-04T14:06:06;11.40;99.90
3488;DHT22;38546;48.170;11.724;2024-02-04T14:08:38;11.50;99.90
3488;DHT22;38546;48.170;11.724;2024-02-04T14:11:08;11.40;99.90
3488;DHT22;38546;48.170;11.724;2024-02-04T14:13:39;11.50;99.90
3488;DHT22;38546;48.170;11.724;2024-02-04T14:16:09;11.40;99.90
3488;DHT22;38546;48.170;11.724;2024-02-04T14:18:40;11.30;99.90
3488;DHT22;38546;48.170;11.724;2024-02-04T14:21:16;11.40;99.90
3488;DHT22;38546;48.170;11.724;2024-02-04T14:23:46;11.40;99.90
3488;DHT22;38546;48.170;11.724;2024-02-04T14:26:20;11.40;99.90
3488;DHT22;38546;48.170;11.724;2024-02-04T14:28:52;11.40;99.90
3488;DHT22;38546;48.170;11.724;2024-02-04T14:31:22;11.40;99.90
3488;DHT22;38546;48.170;11.724;2024-02-04T14:33:53;11.30;99.90
3488;DHT22;38546;48.170;11.724;2024-02-04T14:36:24;11.50;99.90
3488;DHT22;38546;48.170;11.724;2024-02-04T14:38:55;11.50;99.90
3488;DHT22;38546;48.170;11.724;2024-02-04T14:41:25;11.60;99.90
3488;DHT22;38546;48.170;11.724;2024-02-04T14:43:57;11.50;99.90
3488;DHT22;38546;48.170;11.724;2024-02-04T14:46:28;11.50;99.90
3488;DHT22;38546;48.170;11.724;2024-02-04T14:48:59;11.60;99.90
3488;DHT22;38546;48.170;11.724;2024-02-04T14:51:29;11.40;99.90
3488;DHT22;38546;48.170;11.724;2024-02-04T14:54:01;11.30;99.90
3488;DHT22;38546;48.170;11.724;2024-02-04T14:56:40;11.40;99.90
3488;DHT22;38546;48.170;11.724;2024-02-04T14:59:11;11.50;99.90
3488;DHT22;38546;48.170;11.724;2024-02-04T15:01:45;11.40;99.90
3488;DHT22;38546;48.170;11.724;2024-02-04T15:04:16;11.40;99.90
3488;DHT22;38546;48.170;11.724;2024-02-04T15:06:47;11.40;99.90
3488;DHT22;38546;48.170;11.724;2024-02-04T15:09:19;11.30;99.90
3488;DHT22;38546;48.170;11.724;2024-02-04T15:11:50;11.40;99.90
3488;DHT22;38546;48.170;11.724;2024-02-04T15:14:21;11.40;99.90
3488;DHT22;38546;48.170;11.724;2024-02-04T15:16:53;11.50;99.90
3488;DHT22;38546;48.170;11.724;2024-02-04T15:19:26;11.50;99.90
3488;DHT22;38546;48.170;11.724;2024-02-04T15:21:57;11.50;99.90
3488;DHT22;38546;48.170;11.724;2024-02-04T15:24:28;11.40;99.90
3488;DHT22;38546;48.170;11.724;2024-02-04T15:27:00;11.50;99.90
3488;DHT22;38546;48.170;11.724;2024-02-04T15:29:36;11.40;99.90
3488;DHT22;38546;48.170;11.724;2024-02-04T15:32:09;11.60;99.90
3488;DHT22;38546;48.170;11.724;2024-02-04T15:34:41;11.60;99.90
3488;DHT22;38546;48.170;11.724;2024-02-04T15:37:13;11.60;99.90
3488;DHT22;38546;48.170;11.724;2024-02-04T15:39:44;11.60;99.90
3488;DHT22;38546;48.170;11.724;2024-02-04T15:42:15;11.60;99.90
3488;DHT22;38546;48.170;11.724;2024-02-04T15:44:46;11.50;99.90
3488;DHT22;38546;48.170;11.724;2024-02-04T15:47:18;11.50;99.90
3488;DHT22;38546;48.170;11.724;2024-02-04T15:49:50;11.50;99.90
3488;DHT22;38546;48.170;11.724;2024-02-04T15:52:21;11.60;99.90
3488;DHT22;38546;48.170;11.724;2024-02-04T15:54:52;11.80;99.90
3488;DHT22;38546;48.170;11.724;2024-02-04T15:57:28;11.60;99.90
3488;DHT22;38546;48.170;11.724;2024-02-04T16:00:04;11.60;99.90
3488;DHT22;38546;48.170;11.724;2024-02-04T16:02:51;11.60;99.90
3488;DHT22;38546;48.170;11.724;2024-02-04T16:05:23;11.60;99.90
3488;DHT22;38546;48.170;11.724;2024-02-04T16:07:55;11.70;99.90
3488;DHT22;38546;48.170;11.724;2024-02-04T16:10:26;11.60;99.90
3488;DHT22;38546;48.170;11.724;2024-02-04T16:12:58;11.50;99.90
3488;DHT22;38546;48.170;11.724;2024-02-04T16:15:30;11.60;99.90